createdAt,value
2022-12-01T00:00:00.356Z,85.10
2022-12-01T00:01:00.317Z,84.94
2022-12-01T00:02:00.575Z,84.94
2022-12-01T00:03:00.439Z,84.94
2022-12-01T00:04:00.307Z,84.94
2022-12-01T00:05:00.277Z,84.94
2022-12-01T00:06:01.720Z,84.68
2022-12-01T00:07:00.265Z,84.68
2022-12-01T00:08:00.787Z,84.68
2022-12-01T00:09:00.257Z,84.68
2022-12-01T00:10:00.268Z,84.68
2022-12-01T00:11:04.931Z,84.43
2022-12-01T00:12:00.253Z,84.43
2022-12-01T00:13:02.923Z,84.43
2022-12-01T00:14:00.369Z,84.43
2022-12-01T00:15:00.344Z,84.43
2022-12-01T00:16:10.219Z,84.17
2022-12-01T00:17:00.353Z,84.17
2022-12-01T00:18:01.057Z,84.17
2022-12-01T00:19:00.409Z,84.17
2022-12-01T00:20:00.323Z,84.17
2022-12-01T00:21:04.055Z,84.21
2022-12-01T00:22:00.273Z,84.21
2022-12-01T00:23:00.516Z,84.21
2022-12-01T00:24:00.248Z,84.21
2022-12-01T00:25:00.333Z,84.21
2022-12-01T00:26:02.718Z,84.25
2022-12-01T00:27:00.233Z,84.25
2022-12-01T00:28:00.276Z,84.25
2022-12-01T00:29:00.279Z,84.25
2022-12-01T00:30:00.276Z,84.25
2022-12-01T00:31:00.322Z,84.20
2022-12-01T00:32:00.286Z,84.20
2022-12-01T00:33:00.250Z,84.20
2022-12-01T00:34:00.613Z,84.20
2022-12-01T00:35:00.386Z,84.20
2022-12-01T00:36:00.672Z,84.09
2022-12-01T00:37:00.256Z,84.09
2022-12-01T00:38:00.249Z,84.09
2022-12-01T00:39:00.250Z,84.09
2022-12-01T00:40:00.542Z,84.09
2022-12-01T00:41:08.943Z,83.72
2022-12-01T00:42:00.236Z,83.72
2022-12-01T00:43:00.239Z,83.72
2022-12-01T00:44:00.235Z,83.72
2022-12-01T00:45:00.256Z,83.72
2022-12-01T00:46:00.364Z,83.63
2022-12-01T00:47:00.288Z,83.63
2022-12-01T00:48:00.241Z,83.63
2022-12-01T00:49:00.339Z,83.63
2022-12-01T00:50:00.265Z,83.63
2022-12-01T00:51:00.643Z,83.50
2022-12-01T00:52:00.257Z,83.50
2022-12-01T00:53:04.359Z,83.50
2022-12-01T00:54:00.252Z,83.50
2022-12-01T00:55:00.248Z,83.50
2022-12-01T00:56:00.395Z,83.43
2022-12-01T00:57:00.301Z,83.43
2022-12-01T00:58:00.282Z,83.43
2022-12-01T00:59:00.258Z,83.43
2022-12-01T01:00:00.344Z,83.43
2022-12-01T01:01:01.021Z,83.43
2022-12-01T01:02:00.819Z,83.43
2022-12-01T01:03:00.480Z,83.43
2022-12-01T01:04:00.275Z,83.43
2022-12-01T01:05:00.242Z,83.43
2022-12-01T01:06:04.566Z,83.31
2022-12-01T01:07:00.261Z,83.31
2022-12-01T01:08:00.310Z,83.31
2022-12-01T01:09:00.301Z,83.31
2022-12-01T01:10:00.423Z,83.31
2022-12-01T01:11:00.279Z,83.10
2022-12-01T01:12:00.259Z,83.10
2022-12-01T01:13:00.264Z,83.10
2022-12-01T01:14:00.514Z,83.10
2022-12-01T01:15:00.289Z,83.10
2022-12-01T01:16:01.725Z,83.12
2022-12-01T01:17:00.423Z,83.12
2022-12-01T01:18:00.415Z,83.12
2022-12-01T01:19:00.239Z,83.12
2022-12-01T01:20:00.258Z,83.12
2022-12-01T01:21:01.773Z,83.13
2022-12-01T01:22:00.234Z,83.13
2022-12-01T01:23:00.277Z,83.13
2022-12-01T01:24:00.248Z,83.13
2022-12-01T01:25:00.414Z,83.13
2022-12-01T01:26:02.549Z,83.28
2022-12-01T01:27:00.271Z,83.28
2022-12-01T01:28:00.237Z,83.28
2022-12-01T01:29:00.985Z,83.28
2022-12-01T01:30:00.237Z,83.28
2022-12-01T01:31:03.942Z,83.10
2022-12-01T01:32:00.279Z,83.10
2022-12-01T01:33:00.254Z,83.10
2022-12-01T01:34:00.362Z,83.10
2022-12-01T01:35:00.255Z,83.10
2022-12-01T01:36:00.816Z,83.14
2022-12-01T01:37:00.260Z,83.14
2022-12-01T01:38:00.271Z,83.14
2022-12-01T01:39:00.517Z,83.14
2022-12-01T01:40:00.308Z,83.14
2022-12-01T01:41:02.543Z,82.94
2022-12-01T01:42:00.223Z,82.94
2022-12-01T01:43:00.254Z,82.94
2022-12-01T01:44:01.451Z,82.94
2022-12-01T01:45:00.268Z,82.94
2022-12-01T01:46:00.304Z,83.01
2022-12-01T01:47:00.314Z,83.01
2022-12-01T01:48:00.411Z,83.01
2022-12-01T01:49:01.707Z,83.01
2022-12-01T01:50:01.824Z,83.01
2022-12-01T01:51:00.680Z,83.15
2022-12-01T01:52:01.985Z,83.15
2022-12-01T01:53:01.740Z,83.15
2022-12-01T01:54:03.268Z,83.15
2022-12-01T01:55:00.354Z,83.15
2022-12-01T01:56:01.713Z,82.88
2022-12-01T01:57:01.076Z,82.88
2022-12-01T01:58:01.709Z,82.88
2022-12-01T01:59:00.344Z,82.88
2022-12-01T02:00:02.881Z,82.88
2022-12-01T02:01:00.300Z,82.93
2022-12-01T02:02:02.618Z,82.93
2022-12-01T02:03:01.349Z,82.93
2022-12-01T02:04:00.555Z,82.93
2022-12-01T02:05:01.396Z,82.93
2022-12-01T02:06:04.789Z,82.78
2022-12-01T02:07:00.362Z,82.78
2022-12-01T02:08:01.014Z,82.78
2022-12-01T02:09:00.232Z,82.78
2022-12-01T02:10:00.253Z,82.78
2022-12-01T02:11:07.769Z,82.69
2022-12-01T02:12:01.291Z,82.69
2022-12-01T02:13:07.611Z,82.69
2022-12-01T02:14:08.598Z,82.69
2022-12-01T02:15:01.340Z,82.69
2022-12-01T02:16:00.212Z,82.44
2022-12-01T02:17:00.335Z,82.44
2022-12-01T02:18:10.160Z,82.44
2022-12-01T02:19:10.183Z,82.44
2022-12-01T02:20:07.710Z,82.44
2022-12-01T02:21:10.157Z,82.26
2022-12-01T02:22:10.150Z,82.26
2022-12-01T02:23:10.175Z,82.26
2022-12-01T02:24:03.550Z,82.26
2022-12-01T02:25:10.177Z,82.26
2022-12-01T02:26:07.662Z,82.12
2022-12-01T02:27:04.119Z,82.12
2022-12-01T02:28:10.168Z,82.12
2022-12-01T02:29:10.150Z,82.12
2022-12-01T02:30:04.698Z,82.12
2022-12-01T02:31:03.452Z,81.99
2022-12-01T02:32:01.233Z,81.99
2022-12-01T02:33:10.165Z,81.99
2022-12-01T02:34:08.160Z,81.99
2022-12-01T02:35:10.167Z,81.99
2022-12-01T02:36:03.793Z,81.80
2022-12-01T02:37:09.596Z,81.80
2022-12-01T02:38:07.733Z,81.80
2022-12-01T02:39:03.526Z,81.80
2022-12-01T02:40:04.875Z,81.80
2022-12-01T02:41:01.240Z,81.72
2022-12-01T02:42:03.558Z,81.72
2022-12-01T02:43:02.508Z,81.72
2022-12-01T02:44:05.050Z,81.72
2022-12-01T02:45:03.101Z,81.72
2022-12-01T02:46:10.241Z,81.66
2022-12-01T02:47:07.691Z,81.66
2022-12-01T02:48:01.271Z,81.66
2022-12-01T02:49:03.803Z,81.66
2022-12-01T02:50:01.160Z,81.66
2022-12-01T02:51:05.216Z,81.91
2022-12-01T02:52:01.907Z,81.91
2022-12-01T02:53:02.061Z,81.91
2022-12-01T02:54:01.220Z,81.91
2022-12-01T02:55:00.245Z,81.91
2022-12-01T02:56:00.283Z,81.84
2022-12-01T02:57:00.266Z,81.84
2022-12-01T02:58:00.356Z,81.84
2022-12-01T02:59:00.248Z,81.84
2022-12-01T03:00:01.032Z,81.84
2022-12-01T03:01:06.056Z,81.87
2022-12-01T03:02:01.278Z,81.87
2022-12-01T03:03:10.172Z,81.87
2022-12-01T03:04:10.158Z,81.87
2022-12-01T03:05:04.234Z,81.87
2022-12-01T03:06:10.175Z,81.76
2022-12-01T03:07:07.746Z,81.76
2022-12-01T03:08:00.291Z,81.76
2022-12-01T03:09:03.505Z,81.76
2022-12-01T03:10:07.756Z,81.76
2022-12-01T03:11:00.989Z,81.71
2022-12-01T03:12:01.232Z,81.71
2022-12-01T03:13:01.295Z,81.71
2022-12-01T03:14:01.232Z,81.71
2022-12-01T03:15:03.523Z,81.71
2022-12-01T03:16:10.266Z,81.74
2022-12-01T03:17:03.680Z,81.74
2022-12-01T03:18:05.909Z,81.74
2022-12-01T03:19:10.206Z,81.74
2022-12-01T03:20:05.774Z,81.74
2022-12-01T03:21:05.788Z,81.82
2022-12-01T03:22:05.993Z,81.82
2022-12-01T03:23:05.966Z,81.82
2022-12-01T03:24:02.749Z,81.82
2022-12-01T03:25:01.290Z,81.82
2022-12-01T03:26:02.459Z,81.96
2022-12-01T03:27:01.175Z,81.96
2022-12-01T03:28:20.731Z,81.96
2022-12-01T03:29:04.438Z,81.96
2022-12-01T03:30:01.140Z,81.96
2022-12-01T03:31:03.212Z,82.10
2022-12-01T03:32:03.863Z,82.10
2022-12-01T03:33:02.806Z,82.10
2022-12-01T03:34:06.938Z,82.10
2022-12-01T03:35:03.957Z,82.10
2022-12-01T03:36:10.179Z,82.12
2022-12-01T03:37:03.157Z,82.12
2022-12-01T03:38:04.621Z,82.12
2022-12-01T03:39:03.151Z,82.12
2022-12-01T03:40:02.111Z,82.12
2022-12-01T03:41:05.008Z,82.26
2022-12-01T03:42:06.112Z,82.26
2022-12-01T03:43:03.489Z,82.26
2022-12-01T03:44:06.730Z,82.26
2022-12-01T03:45:03.554Z,82.26
2022-12-01T03:46:00.324Z,82.38
2022-12-01T03:47:03.192Z,82.38
2022-12-01T03:48:00.404Z,82.38
2022-12-01T03:49:00.234Z,82.38
2022-12-01T03:50:01.275Z,82.38
2022-12-01T03:51:10.176Z,82.56
2022-12-01T03:52:01.235Z,82.56
2022-12-01T03:53:10.171Z,82.56
2022-12-01T03:54:01.240Z,82.56
2022-12-01T03:55:07.012Z,82.56
2022-12-01T03:56:01.682Z,82.70
2022-12-01T03:57:03.954Z,82.70
2022-12-01T03:58:03.031Z,82.70
2022-12-01T03:59:02.071Z,82.70
2022-12-01T04:00:00.816Z,82.70
2022-12-01T04:01:02.572Z,82.78
2022-12-01T04:02:00.620Z,82.78
2022-12-01T04:03:01.587Z,82.78
2022-12-01T04:04:04.824Z,82.78
2022-12-01T04:05:00.245Z,82.78
2022-12-01T04:06:00.321Z,82.81
2022-12-01T04:07:00.319Z,82.81
2022-12-01T04:08:00.421Z,82.81
2022-12-01T04:09:00.414Z,82.81
2022-12-01T04:10:00.286Z,82.81
2022-12-01T04:11:00.231Z,82.92
2022-12-01T04:12:00.267Z,82.92
2022-12-01T04:13:04.895Z,82.92
2022-12-01T04:14:03.558Z,82.92
2022-12-01T04:15:09.046Z,82.92
2022-12-01T04:16:01.156Z,83.04
2022-12-01T04:17:00.255Z,83.04
2022-12-01T04:18:00.229Z,83.04
2022-12-01T04:19:00.235Z,83.04
2022-12-01T04:20:00.270Z,83.04
2022-12-01T04:21:00.236Z,83.27
2022-12-01T04:22:00.238Z,83.27
2022-12-01T04:23:00.269Z,83.27
2022-12-01T04:24:00.277Z,83.27
2022-12-01T04:25:00.225Z,83.27
2022-12-01T04:26:01.306Z,83.46
2022-12-01T04:27:00.234Z,83.46
2022-12-01T04:28:00.232Z,83.46
2022-12-01T04:29:03.455Z,83.46
2022-12-01T04:30:00.241Z,83.46
2022-12-01T04:31:00.324Z,83.64
2022-12-01T04:32:00.267Z,83.64
2022-12-01T04:33:00.227Z,83.64
2022-12-01T04:34:00.351Z,83.64
2022-12-01T04:35:00.259Z,83.64
2022-12-01T04:36:00.367Z,83.73
2022-12-01T04:37:00.258Z,83.73
2022-12-01T04:38:00.242Z,83.73
2022-12-01T04:39:01.106Z,83.73
2022-12-01T04:40:00.322Z,83.73
2022-12-01T04:41:00.261Z,83.80
2022-12-01T04:42:00.629Z,83.80
2022-12-01T04:43:00.230Z,83.80
2022-12-01T04:44:00.302Z,83.80
2022-12-01T04:45:00.533Z,83.80
2022-12-01T04:46:00.787Z,83.88
2022-12-01T04:47:00.359Z,83.88
2022-12-01T04:48:00.230Z,83.88
2022-12-01T04:49:00.277Z,83.88
2022-12-01T04:50:00.250Z,83.88
2022-12-01T04:51:00.616Z,83.97
2022-12-01T04:52:00.275Z,83.97
2022-12-01T04:53:00.246Z,83.97
2022-12-01T04:54:00.976Z,83.97
2022-12-01T04:55:00.265Z,83.97
2022-12-01T04:56:00.310Z,84.07
2022-12-01T04:57:00.290Z,84.07
2022-12-01T04:58:00.252Z,84.07
2022-12-01T04:59:00.229Z,84.07
2022-12-01T05:00:00.386Z,84.07
2022-12-01T05:01:01.111Z,84.15
2022-12-01T05:02:00.419Z,84.15
2022-12-01T05:03:00.369Z,84.15
2022-12-01T05:04:00.256Z,84.15
2022-12-01T05:05:00.336Z,84.15
2022-12-01T05:06:02.504Z,84.19
2022-12-01T05:07:00.225Z,84.19
2022-12-01T05:08:00.404Z,84.19
2022-12-01T05:09:00.632Z,84.19
2022-12-01T05:10:00.364Z,84.19
2022-12-01T05:11:00.611Z,84.29
2022-12-01T05:12:00.323Z,84.29
2022-12-01T05:13:00.363Z,84.29
2022-12-01T05:14:00.336Z,84.29
2022-12-01T05:15:00.240Z,84.29
2022-12-01T05:16:10.232Z,84.38
2022-12-01T05:17:00.239Z,84.38
2022-12-01T05:18:00.285Z,84.38
2022-12-01T05:19:01.409Z,84.38
2022-12-01T05:20:00.244Z,84.38
2022-12-01T05:21:00.608Z,84.44
2022-12-01T05:22:00.237Z,84.44
2022-12-01T05:23:06.060Z,84.44
2022-12-01T05:24:00.270Z,84.44
2022-12-01T05:25:00.374Z,84.44
2022-12-01T05:26:00.847Z,84.57
2022-12-01T05:27:00.283Z,84.57
2022-12-01T05:28:00.233Z,84.57
2022-12-01T05:29:00.255Z,84.57
2022-12-01T05:30:00.275Z,84.57
2022-12-01T05:31:00.262Z,84.60
2022-12-01T05:32:00.416Z,84.60
2022-12-01T05:33:00.227Z,84.60
2022-12-01T05:34:00.336Z,84.60
2022-12-01T05:35:00.362Z,84.60
2022-12-01T05:36:00.275Z,84.70
2022-12-01T05:37:00.242Z,84.70
2022-12-01T05:38:04.650Z,84.70
2022-12-01T05:39:00.251Z,84.70
2022-12-01T05:40:02.256Z,84.70
2022-12-01T05:41:00.305Z,84.75
2022-12-01T05:42:00.260Z,84.75
2022-12-01T05:43:00.463Z,84.75
2022-12-01T05:44:00.250Z,84.75
2022-12-01T05:45:00.278Z,84.75
2022-12-01T05:46:00.644Z,84.85
2022-12-01T05:47:00.234Z,84.85
2022-12-01T05:48:00.909Z,84.85
2022-12-01T05:49:00.226Z,84.85
2022-12-01T05:50:05.182Z,84.85
2022-12-01T05:51:06.468Z,84.95
2022-12-01T05:52:00.228Z,84.95
2022-12-01T05:53:00.228Z,84.95
2022-12-01T05:54:00.541Z,84.95
2022-12-01T05:55:00.569Z,84.95
2022-12-01T05:56:00.277Z,85.00
2022-12-01T05:57:00.250Z,85.00
2022-12-01T05:58:00.775Z,85.00
2022-12-01T05:59:00.343Z,85.00
2022-12-01T06:00:00.460Z,85.00
2022-12-01T06:01:00.553Z,85.08
2022-12-01T06:02:00.251Z,85.08
2022-12-01T06:03:00.241Z,85.08
2022-12-01T06:04:00.328Z,85.08
2022-12-01T06:05:00.270Z,85.08
2022-12-01T06:06:00.281Z,85.14
2022-12-01T06:07:00.294Z,85.14
2022-12-01T06:08:00.516Z,85.14
2022-12-01T06:09:00.283Z,85.14
2022-12-01T06:10:00.747Z,85.14
2022-12-01T06:11:00.386Z,85.25
2022-12-01T06:12:00.235Z,85.25
2022-12-01T06:13:00.318Z,85.25
2022-12-01T06:14:00.283Z,85.25
2022-12-01T06:15:00.276Z,85.25
2022-12-01T06:16:01.291Z,85.32
2022-12-01T06:17:00.349Z,85.32
2022-12-01T06:18:00.353Z,85.32
2022-12-01T06:19:00.308Z,85.32
2022-12-01T06:20:00.387Z,85.32
2022-12-01T06:21:00.548Z,85.39
2022-12-01T06:22:00.248Z,85.39
2022-12-01T06:23:00.236Z,85.39
2022-12-01T06:24:00.250Z,85.39
2022-12-01T06:25:00.431Z,85.39
2022-12-01T06:26:00.251Z,85.46
2022-12-01T06:27:00.248Z,85.46
2022-12-01T06:28:00.266Z,85.46
2022-12-01T06:29:00.308Z,85.46
2022-12-01T06:30:00.418Z,85.46
2022-12-01T06:31:03.491Z,85.52
2022-12-01T06:32:00.295Z,85.52
2022-12-01T06:33:00.275Z,85.52
2022-12-01T06:34:00.254Z,85.52
2022-12-01T06:35:00.262Z,85.52
2022-12-01T06:36:01.433Z,85.59
2022-12-01T06:37:00.224Z,85.59
2022-12-01T06:38:00.237Z,85.59
2022-12-01T06:39:00.250Z,85.59
2022-12-01T06:40:00.283Z,85.59
2022-12-01T06:41:00.606Z,85.63
2022-12-01T06:42:00.429Z,85.63
2022-12-01T06:43:00.818Z,85.63
2022-12-01T06:44:00.242Z,85.63
2022-12-01T06:45:00.241Z,85.63
2022-12-01T06:46:02.594Z,85.73
2022-12-01T06:47:00.241Z,85.73
2022-12-01T06:48:00.241Z,85.73
2022-12-01T06:49:00.229Z,85.73
2022-12-01T06:50:00.267Z,85.73
2022-12-01T06:51:00.715Z,85.86
2022-12-01T06:52:01.142Z,85.86
2022-12-01T06:53:00.231Z,85.86
2022-12-01T06:54:05.490Z,85.86
2022-12-01T06:55:00.293Z,85.86
2022-12-01T06:56:00.966Z,85.88
2022-12-01T06:57:00.224Z,85.88
2022-12-01T06:58:00.234Z,85.88
2022-12-01T06:59:00.227Z,85.88
2022-12-01T07:00:00.358Z,85.88
2022-12-01T07:01:06.187Z,85.92
2022-12-01T07:02:00.264Z,85.92
2022-12-01T07:03:00.364Z,85.92
2022-12-01T07:04:00.234Z,85.92
2022-12-01T07:05:00.267Z,85.92
2022-12-01T07:06:00.786Z,85.90
2022-12-01T07:07:00.235Z,85.90
2022-12-01T07:08:00.348Z,85.90
2022-12-01T07:09:00.231Z,85.90
2022-12-01T07:10:00.322Z,85.90
2022-12-01T07:11:01.440Z,85.91
2022-12-01T07:12:00.355Z,85.91
2022-12-01T07:13:00.225Z,85.91
2022-12-01T07:14:00.257Z,85.91
2022-12-01T07:15:00.236Z,85.91
2022-12-01T07:16:01.090Z,85.84
2022-12-01T07:17:00.368Z,85.84
2022-12-01T07:18:00.234Z,85.84
2022-12-01T07:19:00.226Z,85.84
2022-12-01T07:20:00.272Z,85.84
2022-12-01T07:21:00.644Z,85.84
2022-12-01T07:22:00.272Z,85.84
2022-12-01T07:23:00.279Z,85.84
2022-12-01T07:24:00.256Z,85.84
2022-12-01T07:25:00.323Z,85.84
2022-12-01T07:26:01.115Z,85.84
2022-12-01T07:27:00.322Z,85.84
2022-12-01T07:28:00.254Z,85.84
2022-12-01T07:29:00.224Z,85.84
2022-12-01T07:30:00.277Z,85.84
2022-12-01T07:31:02.554Z,85.76
2022-12-01T07:32:00.314Z,85.76
2022-12-01T07:33:00.249Z,85.76
2022-12-01T07:34:00.263Z,85.76
2022-12-01T07:35:00.252Z,85.76
2022-12-01T07:36:00.537Z,85.67
2022-12-01T07:37:00.273Z,85.67
2022-12-01T07:38:00.263Z,85.67
2022-12-01T07:39:03.443Z,85.67
2022-12-01T07:40:00.249Z,85.67
2022-12-01T07:41:00.974Z,85.61
2022-12-01T07:42:00.259Z,85.61
2022-12-01T07:43:00.317Z,85.61
2022-12-01T07:44:00.590Z,85.61
2022-12-01T07:45:00.413Z,85.61
2022-12-01T07:46:04.654Z,85.71
2022-12-01T07:47:00.238Z,85.71
2022-12-01T07:48:02.031Z,85.71
2022-12-01T07:49:00.233Z,85.71
2022-12-01T07:50:00.254Z,85.71
2022-12-01T07:51:00.601Z,86.03
2022-12-01T07:52:00.246Z,86.03
2022-12-01T07:53:00.229Z,86.03
2022-12-01T07:54:01.234Z,86.03
2022-12-01T07:55:00.356Z,86.03
2022-12-01T07:56:05.531Z,85.88
2022-12-01T07:57:00.284Z,85.88
2022-12-01T07:58:00.226Z,85.88
2022-12-01T07:59:00.229Z,85.88
2022-12-01T08:00:00.374Z,85.88
2022-12-01T08:01:04.882Z,85.81
2022-12-01T08:02:00.383Z,85.81
2022-12-01T08:03:00.318Z,85.81
2022-12-01T08:04:00.221Z,85.81
2022-12-01T08:05:00.261Z,85.81
2022-12-01T08:06:00.826Z,85.74
2022-12-01T08:07:00.317Z,85.74
2022-12-01T08:08:00.489Z,85.74
2022-12-01T08:09:00.252Z,85.74
2022-12-01T08:10:00.246Z,85.74
2022-12-01T08:11:01.306Z,85.67
2022-12-01T08:12:00.227Z,85.67
2022-12-01T08:13:00.237Z,85.67
2022-12-01T08:14:00.361Z,85.67
2022-12-01T08:15:00.241Z,85.67
2022-12-01T08:16:04.151Z,85.69
2022-12-01T08:17:00.435Z,85.69
2022-12-01T08:18:00.393Z,85.69
2022-12-01T08:19:00.319Z,85.69
2022-12-01T08:20:00.236Z,85.69
2022-12-01T08:21:00.252Z,85.66
2022-12-01T08:22:00.244Z,85.66
2022-12-01T08:23:00.923Z,85.66
2022-12-01T08:24:00.256Z,85.66
2022-12-01T08:25:00.234Z,85.66
2022-12-01T08:26:01.214Z,85.58
2022-12-01T08:27:00.252Z,85.58
2022-12-01T08:28:00.612Z,85.58
2022-12-01T08:29:00.336Z,85.58
2022-12-01T08:30:00.443Z,85.58
2022-12-01T08:31:06.137Z,85.59
2022-12-01T08:32:00.473Z,85.59
2022-12-01T08:33:00.239Z,85.59
2022-12-01T08:34:03.356Z,85.59
2022-12-01T08:35:00.479Z,85.59
2022-12-01T08:36:00.887Z,85.66
2022-12-01T08:37:00.246Z,85.66
2022-12-01T08:38:00.244Z,85.66
2022-12-01T08:39:00.423Z,85.66
2022-12-01T08:40:00.299Z,85.66
2022-12-01T08:41:00.983Z,85.64
2022-12-01T08:42:00.228Z,85.64
2022-12-01T08:43:00.254Z,85.64
2022-12-01T08:44:01.335Z,85.64
2022-12-01T08:45:00.341Z,85.64
2022-12-01T08:46:00.780Z,85.70
2022-12-01T08:47:00.306Z,85.70
2022-12-01T08:48:00.230Z,85.70
2022-12-01T08:49:00.959Z,85.70
2022-12-01T08:50:00.224Z,85.70
2022-12-01T08:51:04.512Z,85.75
2022-12-01T08:52:00.244Z,85.75
2022-12-01T08:53:00.225Z,85.75
2022-12-01T08:54:00.293Z,85.75
2022-12-01T08:55:00.618Z,85.75
2022-12-01T08:56:01.379Z,85.62
2022-12-01T08:57:00.238Z,85.62
2022-12-01T08:58:00.289Z,85.62
2022-12-01T08:59:00.655Z,85.62
2022-12-01T09:00:00.386Z,85.62
2022-12-01T09:01:01.672Z,85.78
2022-12-01T09:02:05.376Z,85.78
2022-12-01T09:03:00.340Z,85.78
2022-12-01T09:04:01.032Z,85.78
2022-12-01T09:05:00.252Z,85.78
2022-12-01T09:06:01.540Z,85.81
2022-12-01T09:07:01.902Z,85.81
2022-12-01T09:08:00.390Z,85.81
2022-12-01T09:09:00.234Z,85.81
2022-12-01T09:10:00.264Z,85.81
2022-12-01T09:11:02.011Z,85.86
2022-12-01T09:12:00.255Z,85.86
2022-12-01T09:13:00.241Z,85.86
2022-12-01T09:14:00.297Z,85.86
2022-12-01T09:15:00.245Z,85.86
2022-12-01T09:16:03.169Z,85.96
2022-12-01T09:17:00.241Z,85.96
2022-12-01T09:18:00.232Z,85.96
2022-12-01T09:19:00.241Z,85.96
2022-12-01T09:20:00.234Z,85.96
2022-12-01T09:21:08.249Z,86.08
2022-12-01T09:22:00.540Z,86.08
2022-12-01T09:23:00.298Z,86.08
2022-12-01T09:24:00.606Z,86.08
2022-12-01T09:25:00.250Z,86.08
2022-12-01T09:26:00.253Z,86.23
2022-12-01T09:27:00.562Z,86.23
2022-12-01T09:28:00.244Z,86.23
2022-12-01T09:29:02.077Z,86.23
2022-12-01T09:30:00.235Z,86.23
2022-12-01T09:31:04.120Z,86.34
2022-12-01T09:32:00.415Z,86.34
2022-12-01T09:33:00.255Z,86.34
2022-12-01T09:34:02.465Z,86.34
2022-12-01T09:35:00.255Z,86.34
2022-12-01T09:36:01.010Z,86.53
2022-12-01T09:37:00.303Z,86.53
2022-12-01T09:38:00.316Z,86.53
2022-12-01T09:39:00.655Z,86.53
2022-12-01T09:40:00.250Z,86.53
2022-12-01T09:41:03.345Z,86.64
2022-12-01T09:42:10.168Z,86.64
2022-12-01T09:43:01.712Z,86.64
2022-12-01T09:44:04.348Z,86.64
2022-12-01T09:45:01.359Z,86.64
2022-12-01T09:46:03.426Z,86.91
2022-12-01T09:47:03.580Z,86.91
2022-12-01T09:48:01.984Z,86.91
2022-12-01T09:49:01.528Z,86.91
2022-12-01T09:50:00.265Z,86.91
2022-12-01T09:51:00.331Z,87.26
2022-12-01T09:52:00.339Z,87.26
2022-12-01T09:53:02.754Z,87.26
2022-12-01T09:54:00.802Z,87.26
2022-12-01T09:55:00.537Z,87.26
2022-12-01T09:56:07.151Z,87.46
2022-12-01T09:57:00.330Z,87.46
2022-12-01T09:58:01.297Z,87.46
2022-12-01T09:59:01.289Z,87.46
2022-12-01T10:00:01.806Z,87.46
2022-12-01T10:01:00.418Z,87.56
2022-12-01T10:02:01.292Z,87.56
2022-12-01T10:03:00.217Z,87.56
2022-12-01T10:04:07.039Z,87.56
2022-12-01T10:05:03.363Z,87.56
2022-12-01T10:06:27.736Z,87.68
2022-12-01T10:07:03.342Z,87.68
2022-12-01T10:08:04.081Z,87.68
2022-12-01T10:09:10.166Z,87.68
2022-12-01T10:10:03.952Z,87.68
2022-12-01T10:11:05.684Z,87.82
2022-12-01T10:12:09.265Z,87.82
2022-12-01T10:13:00.376Z,87.82
2022-12-01T10:14:00.611Z,87.82
2022-12-01T10:15:10.213Z,87.82
2022-12-01T10:16:06.604Z,87.95
2022-12-01T10:17:10.191Z,87.95
2022-12-01T10:18:10.148Z,87.95
2022-12-01T10:19:06.742Z,87.95
2022-12-01T10:20:04.980Z,87.95
2022-12-01T10:21:10.189Z,88.17
2022-12-01T10:22:01.237Z,88.17
2022-12-01T10:23:08.944Z,88.17
2022-12-01T10:24:01.247Z,88.17
2022-12-01T10:25:06.442Z,88.17
2022-12-01T10:26:06.230Z,88.10
2022-12-01T10:27:10.159Z,88.10
2022-12-01T10:28:10.148Z,88.10
2022-12-01T10:29:03.493Z,88.10
2022-12-01T10:30:07.930Z,88.10
2022-12-01T10:31:03.899Z,88.31
2022-12-01T10:32:04.068Z,88.31
2022-12-01T10:33:05.469Z,88.31
2022-12-01T10:34:05.021Z,88.31
2022-12-01T10:35:00.291Z,88.31
2022-12-01T10:36:00.494Z,88.33
2022-12-01T10:37:00.470Z,88.33
2022-12-01T10:38:01.591Z,88.33
2022-12-01T10:39:01.225Z,88.33
2022-12-01T10:40:01.089Z,88.33
2022-12-01T10:41:01.126Z,88.26
2022-12-01T10:42:04.333Z,88.26
2022-12-01T10:43:00.963Z,88.26
2022-12-01T10:44:02.092Z,88.26
2022-12-01T10:45:01.609Z,88.26
2022-12-01T10:46:04.516Z,88.37
2022-12-01T10:47:01.114Z,88.37
2022-12-01T10:48:10.176Z,88.37
2022-12-01T10:49:06.516Z,88.37
2022-12-01T10:50:01.966Z,88.37
2022-12-01T10:51:10.184Z,88.25
2022-12-01T10:52:00.246Z,88.25
2022-12-01T10:53:00.713Z,88.25
2022-12-01T10:54:06.101Z,88.25
2022-12-01T10:55:00.738Z,88.25
2022-12-01T10:56:03.949Z,88.47
2022-12-01T10:57:00.722Z,88.47
2022-12-01T10:58:09.115Z,88.47
2022-12-01T10:59:10.144Z,88.47
2022-12-01T11:00:00.314Z,88.47
2022-12-01T11:01:02.704Z,88.47
2022-12-01T11:02:01.073Z,88.47
2022-12-01T11:03:00.986Z,88.47
2022-12-01T11:04:07.526Z,88.47
2022-12-01T11:05:01.636Z,88.47
2022-12-01T11:06:01.318Z,88.63
2022-12-01T11:07:00.698Z,88.63
2022-12-01T11:08:00.367Z,88.63
2022-12-01T11:09:02.520Z,88.63
2022-12-01T11:10:00.232Z,88.63
2022-12-01T11:11:00.643Z,88.65
2022-12-01T11:12:01.470Z,88.65
2022-12-01T11:13:10.142Z,88.65
2022-12-01T11:14:01.779Z,88.65
2022-12-01T11:15:00.689Z,88.65
2022-12-01T11:16:01.865Z,88.78
2022-12-01T11:17:10.173Z,88.78
2022-12-01T11:18:02.819Z,88.78
2022-12-01T11:19:10.190Z,88.78
2022-12-01T11:20:10.277Z,88.78
2022-12-01T11:21:10.150Z,88.94
2022-12-01T11:22:01.256Z,88.94
2022-12-01T11:23:10.160Z,88.94
2022-12-01T11:24:00.252Z,88.94
2022-12-01T11:25:02.129Z,88.94
2022-12-01T11:26:02.722Z,88.94
2022-12-01T11:27:00.314Z,88.94
2022-12-01T11:28:02.197Z,88.94
2022-12-01T11:29:02.075Z,88.94
2022-12-01T11:30:01.537Z,88.94
2022-12-01T11:31:08.801Z,88.95
2022-12-01T11:32:01.200Z,88.95
2022-12-01T11:33:02.097Z,88.95
2022-12-01T11:34:00.395Z,88.95
2022-12-01T11:35:03.178Z,88.95
2022-12-01T11:36:00.257Z,89.03
2022-12-01T11:37:01.992Z,89.03
2022-12-01T11:38:29.334Z,89.03
2022-12-01T11:39:00.845Z,89.03
2022-12-01T11:40:10.217Z,89.03
2022-12-01T11:41:00.491Z,89.15
2022-12-01T11:42:01.989Z,89.15
2022-12-01T11:43:01.695Z,89.15
2022-12-01T11:44:02.185Z,89.15
2022-12-01T11:45:10.192Z,89.15
2022-12-01T11:46:03.492Z,89.10
2022-12-01T11:47:22.685Z,89.10
2022-12-01T11:48:04.422Z,89.10
2022-12-01T11:49:00.278Z,89.10
2022-12-01T11:50:01.563Z,89.10
2022-12-01T11:51:03.352Z,89.40
2022-12-01T11:52:10.141Z,89.40
2022-12-01T11:53:00.697Z,89.40
2022-12-01T11:54:05.489Z,89.40
2022-12-01T11:55:06.929Z,89.40
2022-12-01T11:56:10.152Z,89.18
2022-12-01T11:57:31.794Z,89.18
2022-12-01T11:58:02.080Z,89.18
2022-12-01T11:59:03.753Z,89.18
2022-12-01T12:00:00.604Z,89.18
2022-12-01T12:01:00.443Z,89.43
2022-12-01T12:02:10.218Z,89.43
2022-12-01T12:03:10.204Z,89.43
2022-12-01T12:04:10.146Z,89.43
2022-12-01T12:05:03.506Z,89.43
2022-12-01T12:06:39.066Z,89.43
2022-12-01T12:07:07.775Z,89.43
2022-12-01T12:08:10.176Z,89.43
2022-12-01T12:09:10.204Z,89.43
2022-12-01T12:10:06.188Z,89.43
2022-12-01T12:11:10.223Z,89.50
2022-12-01T12:12:06.791Z,89.50
2022-12-01T12:13:10.169Z,89.50
2022-12-01T12:14:10.163Z,89.50
2022-12-01T12:15:10.159Z,89.50
2022-12-01T12:16:13.534Z,89.50
2022-12-01T12:17:10.163Z,89.50
2022-12-01T12:18:10.258Z,89.50
2022-12-01T12:19:05.862Z,89.50
2022-12-01T12:20:10.450Z,89.50
2022-12-01T12:21:01.247Z,89.38
2022-12-01T12:22:00.228Z,89.38
2022-12-01T12:23:01.237Z,89.38
2022-12-01T12:24:03.551Z,89.38
2022-12-01T12:25:10.234Z,89.38
2022-12-01T12:26:10.161Z,89.55
2022-12-01T12:27:10.152Z,89.55
2022-12-01T12:28:10.165Z,89.55
2022-12-01T12:29:13.757Z,89.55
2022-12-01T12:30:06.627Z,89.55
2022-12-01T12:31:10.275Z,89.49
2022-12-01T12:32:01.236Z,89.49
2022-12-01T12:33:10.155Z,89.49
2022-12-01T12:34:10.203Z,89.49
2022-12-01T12:35:10.192Z,89.49
2022-12-01T12:36:10.160Z,89.31
2022-12-01T12:37:10.163Z,89.31
2022-12-01T12:38:10.167Z,89.31
2022-12-01T12:39:03.511Z,89.31
2022-12-01T12:40:07.840Z,89.31
2022-12-01T12:41:10.158Z,89.19
2022-12-01T12:42:04.749Z,89.19
2022-12-01T12:43:07.353Z,89.19
2022-12-01T12:44:03.529Z,89.19
2022-12-01T12:45:00.312Z,89.19
2022-12-01T12:46:03.802Z,89.25
2022-12-01T12:47:01.228Z,89.25
2022-12-01T12:48:00.287Z,89.25
2022-12-01T12:49:20.772Z,89.25
2022-12-01T12:50:00.227Z,89.25
2022-12-01T12:51:07.771Z,88.87
2022-12-01T12:52:08.630Z,88.87